sensor_id;sensor_type;location;lat;lon;timestamp;pressure;altitude;pressure_sealevel;temperature;humidity
78431;BME280;67727;50.236;22.452;2023-07-13T00:00:10;99281.71;;;20.77;73.38
78431;BME280;67727;50.236;22.452;2023-07-13T00:02:57;99268.67;;;20.72;73.58
78431;BME280;67727;50.236;22.452;2023-07-13T00:05:24;99258.96;;;20.65;73.48
78431;BME280;67727;50.236;22.452;2023-07-13T00:07:52;99254.81;;;20.61;73.53
78431;BME280;67727;50.236;22.452;2023-07-13T00:10:19;99257.64;;;20.58;73.50
78431;BME280;67727;50.236;22.452;2023-07-13T00:12:46;99264.29;;;20.56;73.86
78431;BME280;67727;50.236;22.452;2023-07-13T00:15:16;99277.95;;;20.55;74.14
78431;BME280;67727;50.236;22.452;2023-07-13T00:17:43;99285.48;;;20.49;74.31
78431;BME280;67727;50.236;22.452;2023-07-13T00:20:13;99285.27;;;20.45;74.28
78431;BME280;67727;50.236;22.452;2023-07-13T00:22:41;99275.46;;;20.45;74.15
78431;BME280;67727;50.236;22.452;2023-07-13T00:25:10;99269.82;;;20.45;73.97
78431;BME280;67727;50.236;22.452;2023-07-13T00:27:38;99269.98;;;20.45;73.91
78431;BME280;67727;50.236;22.452;2023-07-13T00:30:05;99268.17;;;20.44;73.95
78431;BME280;67727;50.236;22.452;2023-07-13T00:32:32;99268.64;;;20.43;74.13
78431;BME280;67727;50.236;22.452;2023-07-13T00:34:59;99265.73;;;20.42;74.07
78431;BME280;67727;50.236;22.452;2023-07-13T00:37:27;99256.35;;;20.42;74.19
78431;BME280;67727;50.236;22.452;2023-07-13T00:39:53;99252.31;;;20.43;74.01
78431;BME280;67727;50.236;22.452;2023-07-13T00:42:20;99254.33;;;20.43;74.15
78431;BME280;67727;50.236;22.452;2023-07-13T00:45:06;99255.94;;;20.43;74.11
78431;BME280;67727;50.236;22.452;2023-07-13T00:47:33;99245.98;;;20.44;73.85
78431;BME280;67727;50.236;22.452;2023-07-13T00:50:01;99231.77;;;20.43;73.85
78431;BME280;67727;50.236;22.452;2023-07-13T00:52:30;99222.43;;;20.43;73.83
78431;BME280;67727;50.236;22.452;2023-07-13T00:54:57;99227.92;;;20.43;73.81
78431;BME280;67727;50.236;22.452;2023-07-13T00:57:24;99232.42;;;20.40;73.77
78431;BME280;67727;50.236;22.452;2023-07-13T00:59:59;99227.81;;;20.37;73.72
78431;BME280;67727;50.236;22.452;2023-07-13T01:02:34;99225.35;;;20.34;73.54
78431;BME280;67727;50.236;22.452;2023-07-13T01:05:15;99223.37;;;20.30;73.72
78431;BME280;67727;50.236;22.452;2023-07-13T01:07:42;99226.83;;;20.26;73.47
78431;BME280;67727;50.236;22.452;2023-07-13T01:10:12;99223.98;;;20.21;73.40
78431;BME280;67727;50.236;22.452;2023-07-13T01:12:39;99222.52;;;20.17;73.47
78431;BME280;67727;50.236;22.452;2023-07-13T01:15:42;99219.91;;;20.15;73.47
78431;BME280;67727;50.236;22.452;2023-07-13T01:18:13;99222.20;;;20.08;73.61
78431;BME280;67727;50.236;22.452;2023-07-13T01:20:46;99217.02;;;20.03;73.64
78431;BME280;67727;50.236;22.452;2023-07-13T01:23:13;99217.15;;;19.96;73.57
78431;BME280;67727;50.236;22.452;2023-07-13T01:25:40;99212.02;;;19.92;73.62
78431;BME280;67727;50.236;22.452;2023-07-13T01:28:08;99215.92;;;19.87;73.64
78431;BME280;67727;50.236;22.452;2023-07-13T01:30:39;99215.24;;;19.82;73.89
78431;BME280;67727;50.236;22.452;2023-07-13T01:33:07;99219.42;;;19.81;73.98
78431;BME280;67727;50.236;22.452;2023-07-13T01:35:36;99225.35;;;19.79;73.86
78431;BME280;67727;50.236;22.452;2023-07-13T01:38:04;99232.64;;;19.77;73.72
78431;BME280;67727;50.236;22.452;2023-07-13T01:40:31;99235.91;;;19.76;73.75
78431;BME280;67727;50.236;22.452;2023-07-13T01:42:58;99236.41;;;19.74;73.78
78431;BME280;67727;50.236;22.452;2023-07-13T01:45:25;99234.27;;;19.70;74.08
78431;BME280;67727;50.236;22.452;2023-07-13T01:47:52;99225.98;;;19.66;74.03
78431;BME280;67727;50.236;22.452;2023-07-13T01:50:19;99220.23;;;19.62;74.43
78431;BME280;67727;50.236;22.452;2023-07-13T01:52:46;99226.77;;;19.60;74.48
78431;BME280;67727;50.236;22.452;2023-07-13T01:55:13;99232.80;;;19.56;74.52
78431;BME280;67727;50.236;22.452;2023-07-13T01:57:40;99241.38;;;19.50;74.51
78431;BME280;67727;50.236;22.452;2023-07-13T02:00:11;99247.69;;;19.46;74.30
78431;BME280;67727;50.236;22.452;2023-07-13T02:02:38;99242.66;;;19.43;74.36
78431;BME280;67727;50.236;22.452;2023-07-13T02:05:05;99242.28;;;19.40;74.35
78431;BME280;67727;50.236;22.452;2023-07-13T02:07:32;99242.80;;;19.39;74.47
78431;BME280;67727;50.236;22.452;2023-07-13T02:09:59;99247.38;;;19.40;74.44
78431;BME280;67727;50.236;22.452;2023-07-13T02:12:26;99249.67;;;19.42;74.58
78431;BME280;67727;50.236;22.452;2023-07-13T02:14:53;99258.10;;;19.44;74.82
78431;BME280;67727;50.236;22.452;2023-07-13T02:17:19;99262.25;;;19.45;74.94
78431;BME280;67727;50.236;22.452;2023-07-13T02:19:46;99259.67;;;19.45;75.19
78431;BME280;67727;50.236;22.452;2023-07-13T02:22:13;99256.08;;;19.45;75.21
78431;BME280;67727;50.236;22.452;2023-07-13T02:24:40;99255.38;;;19.46;75.08
78431;BME280;67727;50.236;22.452;2023-07-13T02:27:07;99251.36;;;19.42;75.44
78431;BME280;67727;50.236;22.452;2023-07-13T02:29:34;99255.53;;;19.38;75.49
78431;BME280;67727;50.236;22.452;2023-07-13T02:32:01;99254.32;;;19.36;75.37
78431;BME280;67727;50.236;22.452;2023-07-13T02:34:28;99256.20;;;19.37;75.42
78431;BME280;67727;50.236;22.452;2023-07-13T02:36:55;99255.57;;;19.37;75.33
78431;BME280;67727;50.236;22.452;2023-07-13T02:39:22;99254.20;;;19.39;75.25
78431;BME280;67727;50.236;22.452;2023-07-13T02:41:49;99259.95;;;19.42;75.37
78431;BME280;67727;50.236;22.452;2023-07-13T02:44:15;99258.81;;;19.46;75.24
78431;BME280;67727;50.236;22.452;2023-07-13T02:46:42;99264.64;;;19.49;75.26
78431;BME280;67727;50.236;22.452;2023-07-13T02:49:09;99262.83;;;19.51;75.39
78431;BME280;67727;50.236;22.452;2023-07-13T02:51:36;99263.90;;;19.51;75.31
78431;BME280;67727;50.236;22.452;2023-07-13T02:54:04;99262.40;;;19.51;75.37
78431;BME280;67727;50.236;22.452;2023-07-13T02:56:31;99262.30;;;19.52;75.44
78431;BME280;67727;50.236;22.452;2023-07-13T02:58:58;99252.54;;;19.53;75.57
78431;BME280;67727;50.236;22.452;2023-07-13T03:01:25;99252.81;;;19.56;75.54
78431;BME280;67727;50.236;22.452;2023-07-13T03:03:52;99252.54;;;19.62;75.42
78431;BME280;67727;50.236;22.452;2023-07-13T03:06:20;99250.05;;;19.68;75.89
78431;BME280;67727;50.236;22.452;2023-07-13T03:08:48;99253.98;;;19.75;75.69
78431;BME280;67727;50.236;22.452;2023-07-13T03:11:18;99255.86;;;19.83;75.73
78431;BME280;67727;50.236;22.452;2023-07-13T03:13:45;99256.67;;;19.92;75.70
78431;BME280;67727;50.236;22.452;2023-07-13T03:16:13;99256.98;;;19.98;75.55
78431;BME280;67727;50.236;22.452;2023-07-13T03:18:42;99258.81;;;20.06;75.21
78431;BME280;67727;50.236;22.452;2023-07-13T03:21:09;99259.62;;;20.11;75.17
78431;BME280;67727;50.236;22.452;2023-07-13T03:23:36;99262.16;;;20.15;75.06
78431;BME280;67727;50.236;22.452;2023-07-13T03:28:36;99271.63;;;20.23;75.11
78431;BME280;67727;50.236;22.452;2023-07-13T03:31:06;99278.05;;;20.29;74.85
78431;BME280;67727;50.236;22.452;2023-07-13T03:33:33;99275.54;;;20.34;74.94
78431;BME280;67727;50.236;22.452;2023-07-13T03:36:00;99272.05;;;20.40;74.82
78431;BME280;67727;50.236;22.452;2023-07-13T03:38:27;99270.16;;;20.44;74.68
78431;BME280;67727;50.236;22.452;2023-07-13T03:40:54;99271.75;;;20.49;74.76
78431;BME280;67727;50.236;22.452;2023-07-13T03:43:20;99273.77;;;20.54;74.82
78431;BME280;67727;50.236;22.452;2023-07-13T03:45:47;99280.14;;;20.57;74.66
78431;BME280;67727;50.236;22.452;2023-07-13T03:48:14;99282.20;;;20.59;74.55
78431;BME280;67727;50.236;22.452;2023-07-13T03:50:41;99279.23;;;20.62;74.58
78431;BME280;67727;50.236;22.452;2023-07-13T03:53:08;99276.43;;;20.67;74.55
78431;BME280;67727;50.236;22.452;2023-07-13T03:55:35;99278.74;;;20.73;74.64
78431;BME280;67727;50.236;22.452;2023-07-13T03:58:25;99277.91;;;20.80;74.68
78431;BME280;67727;50.236;22.452;2023-07-13T04:00:54;99278.50;;;20.89;74.68
78431;BME280;67727;50.236;22.452;2023-07-13T04:03:21;99276.98;;;21.01;74.46
78431;BME280;67727;50.236;22.452;2023-07-13T04:05:47;99279.25;;;21.11;74.08
78431;BME280;67727;50.236;22.452;2023-07-13T04:08:14;99277.12;;;21.20;73.81
78431;BME280;67727;50.236;22.452;2023-07-13T04:10:42;99279.55;;;21.26;73.44
78431;BME280;67727;50.236;22.452;2023-07-13T04:13:08;99277.59;;;21.28;73.16
78431;BME280;67727;50.236;22.452;2023-07-13T04:15:35;99276.31;;;21.30;73.16
78431;BME280;67727;50.236;22.452;2023-07-13T04:18:02;99277.73;;;21.33;73.15
78431;BME280;67727;50.236;22.452;2023-07-13T04:20:29;99279.38;;;21.34;72.92
78431;BME280;67727;50.236;22.452;2023-07-13T04:22:56;99283.44;;;21.36;72.75
78431;BME280;67727;50.236;22.452;2023-07-13T04:25:24;99282.92;;;21.39;72.72
78431;BME280;67727;50.236;22.452;2023-07-13T04:27:50;99283.16;;;21.43;72.44
78431;BME280;67727;50.236;22.452;2023-07-13T04:30:18;99277.95;;;21.45;72.39
78431;BME280;67727;50.236;22.452;2023-07-13T04:32:45;99287.20;;;21.48;72.28
78431;BME280;67727;50.236;22.452;2023-07-13T04:35:12;99289.96;;;21.51;72.25
78431;BME280;67727;50.236;22.452;2023-07-13T04:37:40;99281.31;;;21.54;72.07
78431;BME280;67727;50.236;22.452;2023-07-13T04:40:08;99275.28;;;21.57;71.88
78431;BME280;67727;50.236;22.452;2023-07-13T04:42:38;99274.61;;;21.60;71.71
78431;BME280;67727;50.236;22.452;2023-07-13T04:45:06;99272.03;;;21.62;72.00
78431;BME280;67727;50.236;22.452;2023-07-13T04:47:33;99273.88;;;21.64;72.14
78431;BME280;67727;50.236;22.452;2023-07-13T04:50:01;99280.52;;;21.65;72.22
78431;BME280;67727;50.236;22.452;2023-07-13T04:52:27;99288.96;;;21.66;71.91
78431;BME280;67727;50.236;22.452;2023-07-13T04:54:54;99296.31;;;21.67;72.05
78431;BME280;67727;50.236;22.452;2023-07-13T04:57:21;99304.72;;;21.67;72.27
78431;BME280;67727;50.236;22.452;2023-07-13T04:59:48;99311.52;;;21.66;72.26
78431;BME280;67727;50.236;22.452;2023-07-13T05:02:15;99313.04;;;21.67;72.37
78431;BME280;67727;50.236;22.452;2023-07-13T05:04:41;99317.73;;;21.69;72.38
78431;BME280;67727;50.236;22.452;2023-07-13T05:07:08;99321.02;;;21.70;72.62
78431;BME280;67727;50.236;22.452;2023-07-13T05:09:35;99325.61;;;21.71;72.71
78431;BME280;67727;50.236;22.452;2023-07-13T05:12:02;99324.34;;;21.73;72.85
78431;BME280;67727;50.236;22.452;2023-07-13T05:14:29;99332.94;;;21.74;72.88
78431;BME280;67727;50.236;22.452;2023-07-13T05:16:55;99340.27;;;21.73;72.87
78431;BME280;67727;50.236;22.452;2023-07-13T05:19:23;99341.85;;;21.71;73.30
78431;BME280;67727;50.236;22.452;2023-07-13T05:21:50;99345.12;;;21.73;73.31
78431;BME280;67727;50.236;22.452;2023-07-13T05:24:17;99345.09;;;21.76;73.51
78431;BME280;67727;50.236;22.452;2023-07-13T05:26:45;99346.85;;;21.81;73.55
78431;BME280;67727;50.236;22.452;2023-07-13T05:29:12;99348.02;;;21.86;73.72
78431;BME280;67727;50.236;22.452;2023-07-13T05:31:39;99352.34;;;21.93;73.88
78431;BME280;67727;50.236;22.452;2023-07-13T05:34:06;99362.27;;;22.01;73.89
78431;BME280;67727;50.236;22.452;2023-07-13T05:36:33;99375.89;;;22.09;74.15
78431;BME280;67727;50.236;22.452;2023-07-13T05:39:00;99378.48;;;22.15;74.09
78431;BME280;67727;50.236;22.452;2023-07-13T05:41:27;99383.16;;;22.20;74.25
78431;BME280;67727;50.236;22.452;2023-07-13T05:43:54;99384.48;;;22.25;74.09
78431;BME280;67727;50.236;22.452;2023-07-13T05:46:21;99383.44;;;22.30;73.74
78431;BME280;67727;50.236;22.452;2023-07-13T05:48:47;99387.15;;;22.36;73.18
78431;BME280;67727;50.236;22.452;2023-07-13T05:51:14;99389.17;;;22.42;72.65
78431;BME280;67727;50.236;22.452;2023-07-13T05:53:41;99388.39;;;22.46;71.92
78431;BME280;67727;50.236;22.452;2023-07-13T05:56:08;99385.07;;;22.52;71.75
78431;BME280;67727;50.236;22.452;2023-07-13T05:58:35;99383.75;;;22.58;71.72
78431;BME280;67727;50.236;22.452;2023-07-13T06:01:09;99380.66;;;22.67;71.50
78431;BME280;67727;50.236;22.452;2023-07-13T06:03:36;99373.37;;;22.81;71.36
78431;BME280;67727;50.236;22.452;2023-07-13T06:06:08;99369.95;;;22.99;71.45
78431;BME280;67727;50.236;22.452;2023-07-13T06:08:35;99370.45;;;23.30;71.32
78431;BME280;67727;50.236;22.452;2023-07-13T06:11:10;99377.39;;;23.68;70.59
78431;BME280;67727;50.236;22.452;2023-07-13T06:13:39;99384.80;;;24.14;70.32
78431;BME280;67727;50.236;22.452;2023-07-13T06:16:06;99389.14;;;24.50;68.60
78431;BME280;67727;50.236;22.452;2023-07-13T06:18:35;99397.41;;;24.72;66.97
78431;BME280;67727;50.236;22.452;2023-07-13T06:21:19;99397.79;;;24.86;66.60
78431;BME280;67727;50.236;22.452;2023-07-13T06:23:48;99396.34;;;24.96;65.94
78431;BME280;67727;50.236;22.452;2023-07-13T06:26:15;99397.98;;;25.03;65.86
78431;BME280;67727;50.236;22.452;2023-07-13T06:28:42;99399.04;;;25.05;65.23
78431;BME280;67727;50.236;22.452;2023-07-13T06:31:11;99401.59;;;25.04;64.80
78431;BME280;67727;50.236;22.452;2023-07-13T06:33:38;99400.00;;;25.00;64.50
78431;BME280;67727;50.236;22.452;2023-07-13T06:36:06;99398.29;;;24.94;64.56
78431;BME280;67727;50.236;22.452;2023-07-13T06:38:34;99399.02;;;24.91;64.94
78431;BME280;67727;50.236;22.452;2023-07-13T06:41:01;99391.21;;;24.89;64.35
78431;BME280;67727;50.236;22.452;2023-07-13T06:43:28;99384.98;;;24.86;64.17
78431;BME280;67727;50.236;22.452;2023-07-13T06:45:56;99388.09;;;24.85;64.57
78431;BME280;67727;50.236;22.452;2023-07-13T06:48:23;99383.80;;;24.99;65.36
78431;BME280;67727;50.236;22.452;2023-07-13T06:50:50;99382.43;;;25.16;64.63
78431;BME280;67727;50.236;22.452;2023-07-13T06:53:19;99382.92;;;25.33;64.43
78431;BME280;67727;50.236;22.452;2023-07-13T06:55:46;99382.98;;;25.48;63.85
78431;BME280;67727;50.236;22.452;2023-07-13T06:58:15;99375.35;;;25.60;63.34
78431;BME280;67727;50.236;22.452;2023-07-13T07:00:42;99365.23;;;25.72;62.88
78431;BME280;67727;50.236;22.452;2023-07-13T07:03:09;99363.29;;;25.90;62.41
78431;BME280;67727;50.236;22.452;2023-07-13T07:05:36;99367.65;;;26.07;62.02
78431;BME280;67727;50.236;22.452;2023-07-13T07:08:03;99364.45;;;26.17;61.46
78431;BME280;67727;50.236;22.452;2023-07-13T07:10:30;99365.27;;;26.27;61.58
78431;BME280;67727;50.236;22.452;2023-07-13T07:12:58;99371.23;;;26.42;61.15
78431;BME280;67727;50.236;22.452;2023-07-13T07:15:25;99365.27;;;26.48;60.19
78431;BME280;67727;50.236;22.452;2023-07-13T07:17:52;99364.44;;;26.56;60.21
78431;BME280;67727;50.236;22.452;2023-07-13T07:20:20;99363.86;;;26.58;60.25
78431;BME280;67727;50.236;22.452;2023-07-13T07:22:47;99361.77;;;26.55;60.51
78431;BME280;67727;50.236;22.452;2023-07-13T07:25:14;99359.57;;;26.53;59.78
78431;BME280;67727;50.236;22.452;2023-07-13T07:27:41;99356.23;;;26.51;59.73
78431;BME280;67727;50.236;22.452;2023-07-13T07:30:08;99356.79;;;26.49;59.22
78431;BME280;67727;50.236;22.452;2023-07-13T07:32:35;99351.91;;;26.47;59.27
78431;BME280;67727;50.236;22.452;2023-07-13T07:35:01;99344.14;;;26.43;58.77
78431;BME280;67727;50.236;22.452;2023-07-13T07:37:28;99335.08;;;26.38;59.03
78431;BME280;67727;50.236;22.452;2023-07-13T07:39:55;99331.48;;;26.42;59.43
78431;BME280;67727;50.236;22.452;2023-07-13T07:42:22;99334.08;;;26.47;59.94
78431;BME280;67727;50.236;22.452;2023-07-13T07:44:49;99334.55;;;26.54;59.86
78431;BME280;67727;50.236;22.452;2023-07-13T07:47:16;99333.80;;;26.61;59.64
78431;BME280;67727;50.236;22.452;2023-07-13T07:49:43;99331.64;;;26.69;58.82
78431;BME280;67727;50.236;22.452;2023-07-13T07:52:09;99328.50;;;26.76;59.31
78431;BME280;67727;50.236;22.452;2023-07-13T07:54:36;99325.18;;;26.85;58.10
78431;BME280;67727;50.236;22.452;2023-07-13T07:57:03;99326.61;;;26.92;58.31
78431;BME280;67727;50.236;22.452;2023-07-13T07:59:30;99332.63;;;27.02;58.19
78431;BME280;67727;50.236;22.452;2023-07-13T08:01:56;99335.80;;;27.14;57.53
78431;BME280;67727;50.236;22.452;2023-07-13T08:04:23;99338.15;;;27.20;57.82
78431;BME280;67727;50.236;22.452;2023-07-13T08:06:50;99336.49;;;27.28;58.00
78431;BME280;67727;50.236;22.452;2023-07-13T08:09:17;99338.11;;;27.36;57.53
78431;BME280;67727;50.236;22.452;2023-07-13T08:11:43;99336.90;;;27.41;56.21
78431;BME280;67727;50.236;22.452;2023-07-13T08:14:10;99341.95;;;27.46;56.16
78431;BME280;67727;50.236;22.452;2023-07-13T08:16:37;99339.66;;;27.56;56.92
78431;BME280;67727;50.236;22.452;2023-07-13T08:19:04;99335.42;;;27.65;55.90
78431;BME280;67727;50.236;22.452;2023-07-13T08:21:30;99330.32;;;27.69;55.59
78431;BME280;67727;50.236;22.452;2023-07-13T08:23:57;99327.90;;;27.77;56.28
78431;BME280;67727;50.236;22.452;2023-07-13T08:26:24;99326.63;;;27.96;56.67
78431;BME280;67727;50.236;22.452;2023-07-13T08:28:51;99317.48;;;28.26;55.57
78431;BME280;67727;50.236;22.452;2023-07-13T08:31:18;99318.42;;;28.61;54.20
78431;BME280;67727;50.236;22.452;2023-07-13T08:33:44;99313.83;;;28.79;51.63
78431;BME280;67727;50.236;22.452;2023-07-13T08:36:12;99314.80;;;28.77;52.51
78431;BME280;67727;50.236;22.452;2023-07-13T08:38:38;99316.62;;;28.78;52.91
78431;BME280;67727;50.236;22.452;2023-07-13T08:41:10;99312.13;;;28.80;52.38
78431;BME280;67727;50.236;22.452;2023-07-13T08:43:37;99309.69;;;28.76;51.55
78431;BME280;67727;50.236;22.452;2023-07-13T08:46:17;99313.98;;;28.73;52.36
78431;BME280;67727;50.236;22.452;2023-07-13T08:48:50;99309.70;;;28.74;52.01
78431;BME280;67727;50.236;22.452;2023-07-13T08:54:11;99313.01;;;28.90;51.29
78431;BME280;67727;50.236;22.452;2023-07-13T08:56:43;99314.29;;;28.88;50.16
78431;BME280;67727;50.236;22.452;2023-07-13T08:59:14;99318.52;;;28.77;50.27
78431;BME280;67727;50.236;22.452;2023-07-13T09:04:40;99325.96;;;28.61;51.32
78431;BME280;67727;50.236;22.452;2023-07-13T09:12:28;99314.52;;;28.54;51.50
78431;BME280;67727;50.236;22.452;2023-07-13T09:14:58;99316.44;;;28.59;51.87
78431;BME280;67727;50.236;22.452;2023-07-13T09:17:32;99314.45;;;28.61;52.01
78431;BME280;67727;50.236;22.452;2023-07-13T09:20:21;99307.09;;;28.68;52.66
78431;BME280;67727;50.236;22.452;2023-07-13T09:22:52;99304.81;;;28.84;52.68
78431;BME280;67727;50.236;22.452;2023-07-13T09:25:36;99300.85;;;29.04;52.30
78431;BME280;67727;50.236;22.452;2023-07-13T09:28:29;99298.04;;;29.42;52.03
78431;BME280;67727;50.236;22.452;2023-07-13T09:31:19;99297.09;;;29.84;50.20
78431;BME280;67727;50.236;22.452;2023-07-13T09:33:49;99291.55;;;30.14;49.55
78431;BME280;67727;50.236;22.452;2023-07-13T09:39:41;99286.44;;;30.61;49.34
78431;BME280;67727;50.236;22.452;2023-07-13T09:44:50;99276.74;;;30.55;47.98
78431;BME280;67727;50.236;22.452;2023-07-13T09:47:21;99269.52;;;30.45;47.82
78431;BME280;67727;50.236;22.452;2023-07-13T09:50:15;99264.09;;;30.25;47.67
78431;BME280;67727;50.236;22.452;2023-07-13T09:52:45;99255.65;;;29.85;47.87
78431;BME280;67727;50.236;22.452;2023-07-13T09:57:55;99250.67;;;29.41;49.27
78431;BME280;67727;50.236;22.452;2023-07-13T10:00:27;99245.07;;;29.46;49.59
78431;BME280;67727;50.236;22.452;2023-07-13T10:03:15;99253.74;;;29.58;49.88
78431;BME280;67727;50.236;22.452;2023-07-13T10:05:45;99261.38;;;29.79;49.42
78431;BME280;67727;50.236;22.452;2023-07-13T10:08:18;99259.23;;;30.02;49.50
78431;BME280;67727;50.236;22.452;2023-07-13T10:10:52;99259.20;;;30.16;48.73
78431;BME280;67727;50.236;22.452;2023-07-13T10:13:28;99258.14;;;30.16;47.84
78431;BME280;67727;50.236;22.452;2023-07-13T10:15:57;99256.27;;;30.02;47.58
78431;BME280;67727;50.236;22.452;2023-07-13T10:18:25;99256.42;;;29.94;47.90
78431;BME280;67727;50.236;22.452;2023-07-13T10:21:15;99253.61;;;29.96;48.69
78431;BME280;67727;50.236;22.452;2023-07-13T10:23:43;99247.23;;;30.09;47.71
78431;BME280;67727;50.236;22.452;2023-07-13T10:26:17;99236.09;;;30.22;47.65
78431;BME280;67727;50.236;22.452;2023-07-13T10:28:51;99235.95;;;30.26;47.24
78431;BME280;67727;50.236;22.452;2023-07-13T10:31:19;99230.72;;;30.20;47.44
78431;BME280;67727;50.236;22.452;2023-07-13T10:33:48;99228.85;;;30.12;47.08
78431;BME280;67727;50.236;22.452;2023-07-13T10:36:34;99221.45;;;30.04;47.22
78431;BME280;67727;50.236;22.452;2023-07-13T10:39:06;99222.84;;;29.89;47.16
78431;BME280;67727;50.236;22.452;2023-07-13T10:41:41;99214.97;;;29.80;47.72
78431;BME280;67727;50.236;22.452;2023-07-13T10:44:18;99214.05;;;29.85;48.53
78431;BME280;67727;50.236;22.452;2023-07-13T10:46:46;99212.17;;;30.00;48.99
78431;BME280;67727;50.236;22.452;2023-07-13T10:49:14;99209.30;;;30.06;47.38
78431;BME280;67727;50.236;22.452;2023-07-13T10:51:42;99210.84;;;30.11;47.06
78431;BME280;67727;50.236;22.452;2023-07-13T10:54:27;99212.69;;;30.17;48.02
78431;BME280;67727;50.236;22.452;2023-07-13T10:59:39;99215.14;;;30.48;47.63
78431;BME280;67727;50.236;22.452;2023-07-13T11:02:27;99210.73;;;30.51;46.31
78431;BME280;67727;50.236;22.452;2023-07-13T11:04:56;99205.55;;;30.47;46.56
78431;BME280;67727;50.236;22.452;2023-07-13T11:07:29;99204.13;;;30.45;47.04
78431;BME280;67727;50.236;22.452;2023-07-13T11:09:59;99202.34;;;30.42;46.68
78431;BME280;67727;50.236;22.452;2023-07-13T11:12:49;99203.73;;;30.46;47.31
78431;BME280;67727;50.236;22.452;2023-07-13T11:15:29;99201.86;;;30.41;46.05
78431;BME280;67727;50.236;22.452;2023-07-13T11:17:57;99203.59;;;30.34;46.74
78431;BME280;67727;50.236;22.452;2023-07-13T11:20:33;99198.73;;;30.25;45.83
78431;BME280;67727;50.236;22.452;2023-07-13T11:25:40;99194.26;;;30.02;46.58
78431;BME280;67727;50.236;22.452;2023-07-13T11:30:38;99191.94;;;29.71;46.87
78431;BME280;67727;50.236;22.452;2023-07-13T11:35:36;99187.98;;;29.54;47.72
78431;BME280;67727;50.236;22.452;2023-07-13T11:38:17;99188.77;;;29.45;47.86
78431;BME280;67727;50.236;22.452;2023-07-13T11:40:47;99190.52;;;29.24;47.59
78431;BME280;67727;50.236;22.452;2023-07-13T11:43:16;99189.27;;;29.07;48.31
78431;BME280;67727;50.236;22.452;2023-07-13T11:45:43;99184.71;;;29.01;48.51
78431;BME280;67727;50.236;22.452;2023-07-13T11:48:22;99184.45;;;28.84;48.70
78431;BME280;67727;50.236;22.452;2023-07-13T11:50:51;99189.60;;;28.67;49.26
78431;BME280;67727;50.236;22.452;2023-07-13T11:53:20;99190.55;;;28.54;49.93
78431;BME280;67727;50.236;22.452;2023-07-13T11:55:47;99193.87;;;28.44;50.02
78431;BME280;67727;50.236;22.452;2023-07-13T11:58:19;99189.52;;;28.31;49.87
78431;BME280;67727;50.236;22.452;2023-07-13T12:00:47;99185.77;;;28.22;50.49
78431;BME280;67727;50.236;22.452;2023-07-13T12:03:20;99180.38;;;28.15;50.86
78431;BME280;67727;50.236;22.452;2023-07-13T12:06:02;99177.17;;;28.11;51.18
78431;BME280;67727;50.236;22.452;2023-07-13T12:08:29;99172.95;;;28.02;51.16
78431;BME280;67727;50.236;22.452;2023-07-13T12:10:59;99165.73;;;27.94;51.04
78431;BME280;67727;50.236;22.452;2023-07-13T12:13:27;99161.56;;;27.83;51.22
78431;BME280;67727;50.236;22.452;2023-07-13T12:15:56;99156.08;;;27.72;51.59
78431;BME280;67727;50.236;22.452;2023-07-13T12:18:29;99155.19;;;27.60;52.00
78431;BME280;67727;50.236;22.452;2023-07-13T12:20:58;99153.27;;;27.50;52.45
78431;BME280;67727;50.236;22.452;2023-07-13T12:23:33;99155.72;;;27.46;52.85
78431;BME280;67727;50.236;22.452;2023-07-13T12:26:05;99158.85;;;27.45;53.17
78431;BME280;67727;50.236;22.452;2023-07-13T12:28:45;99154.33;;;27.43;53.23
78431;BME280;67727;50.236;22.452;2023-07-13T12:31:25;99148.79;;;27.35;53.39
78431;BME280;67727;50.236;22.452;2023-07-13T12:34:00;99147.73;;;27.28;53.40
78431;BME280;67727;50.236;22.452;2023-07-13T12:36:30;99146.98;;;27.18;53.85
78431;BME280;67727;50.236;22.452;2023-07-13T12:39:00;99140.83;;;27.09;53.84
78431;BME280;67727;50.236;22.452;2023-07-13T12:41:32;99141.49;;;27.01;54.35
78431;BME280;67727;50.236;22.452;2023-07-13T12:44:00;99145.13;;;26.94;54.55
78431;BME280;67727;50.236;22.452;2023-07-13T12:46:27;99141.25;;;26.89;54.98
78431;BME280;67727;50.236;22.452;2023-07-13T12:48:57;99134.23;;;26.82;54.77
78431;BME280;67727;50.236;22.452;2023-07-13T12:51:27;99130.55;;;26.75;55.27
78431;BME280;67727;50.236;22.452;2023-07-13T12:54:06;99128.10;;;26.68;55.56
78431;BME280;67727;50.236;22.452;2023-07-13T12:56:38;99131.09;;;26.62;56.02
78431;BME280;67727;50.236;22.452;2023-07-13T12:59:05;99138.41;;;26.58;56.27
78431;BME280;67727;50.236;22.452;2023-07-13T13:01:35;99144.23;;;26.56;56.91
78431;BME280;67727;50.236;22.452;2023-07-13T13:04:04;99144.86;;;26.50;57.94
78431;BME280;67727;50.236;22.452;2023-07-13T13:06:35;99145.70;;;26.39;58.83
78431;BME280;67727;50.236;22.452;2023-07-13T13:09:03;99156.41;;;26.30;59.71
78431;BME280;67727;50.236;22.452;2023-07-13T13:11:35;99166.89;;;26.19;60.34
78431;BME280;67727;50.236;22.452;2023-07-13T13:14:02;99174.79;;;26.09;60.96
78431;BME280;67727;50.236;22.452;2023-07-13T13:16:31;99180.04;;;25.98;61.91
78431;BME280;67727;50.236;22.452;2023-07-13T13:19:28;99184.33;;;25.85;62.56
78431;BME280;67727;50.236;22.452;2023-07-13T13:21:54;99193.48;;;25.71;63.29
78431;BME280;67727;50.236;22.452;2023-07-13T13:24:25;99200.55;;;25.57;63.22
78431;BME280;67727;50.236;22.452;2023-07-13T13:26:53;99198.92;;;25.36;62.59
78431;BME280;67727;50.236;22.452;2023-07-13T13:29:22;99203.90;;;25.13;62.34
78431;BME280;67727;50.236;22.452;2023-07-13T13:31:54;99198.20;;;24.88;62.61
78431;BME280;67727;50.236;22.452;2023-07-13T13:34:22;99202.39;;;24.66;62.91